• Join FlightAware (Why Join?)
  • Login
  • US Flag 
11:18AM EDT


 

Airport Tracker/Info


-or-


 

Live Flight TrackerFlight Track Log ✈ N996BL ✈ 15-Aug-2013 ✈ KHOU - KIER

Flight Track Log - Related Links

Times and Time Zones

All times are in EDT time to prevent confusion due to time zone crossing. See the N996BL flight status page for this flight to view local times or setup timezone preferences in your user account.

Time Position Orientation Groundspeed Altitude Reporting Facility
EDT Latitude Longitude Course Direction KTS MPH feet Rate Location/Type
06:41PM 29.6353 -95.2867 146° Southeast 148 170 500  Level Houston Center
06:41PM 29.6169 -95.2722 146° Southeast 152 175 1,500 1,620 Climbing Houston Center
06:42PM 29.6386 -95.2333 57° Northeast 142 163 3,200 1,620 Climbing Houston Center
06:44PM 29.6758 -95.2264 North 159 183 4,800 840 Climbing Houston Center
06:45PM 29.7289 -95.2675 326° Northwest 188 216 5,200 1,080 Climbing Houston Center
06:46PM 29.7642 -95.2975 324° Northwest 186 214 7,100 1,860 Climbing Houston Center
06:47PM 29.8086 -95.2994 358° North 160 184 8,700 1,500 Climbing Houston Center
06:48PM 29.8558 -95.2889 11° North 171 197 10,200 1,380 Climbing Houston Center
06:49PM 29.9056 -95.2806 North 177 204 11,600 1,440 Climbing Houston Center
06:50PM 29.9592 -95.2714 North 188 216 13,200 1,380 Climbing Houston Center
06:51PM 30.0131 -95.2625 North 194 223 14,500 720 Climbing Houston Center
06:52PM 30.0842 -95.2489 North 199 229 15,000 240 Climbing Houston Center
06:53PM 30.1325 -95.2142 32° Northeast 254 292 15,000  Level Houston Center
06:54PM 30.2047 -95.1597 33° Northeast 249 287 15,000  Level Houston Center
06:55PM 30.2639 -95.1142 34° Northeast 254 292 15,000  Level Houston Center
06:56PM 30.3250 -95.0683 33° Northeast 257 296 15,000  Level Houston Center
06:57PM 30.3961 -95.0131 34° Northeast 258 297 15,000  Level Houston Center
06:58PM 30.4547 -94.9672 34° Northeast 256 295 15,000  Level Houston Center
06:59PM 30.5139 -94.9211 34° Northeast 254 292 15,000  Level Houston Center
07:00PM 30.5736 -94.8750 34° Northeast 256 295 15,000  Level Houston Center
07:01PM 30.6342 -94.8289 33° Northeast 258 297 15,000  Level Houston Center
07:02PM 30.7067 -94.7744 33° Northeast 259 298 15,000  Level Houston Center
07:03PM 30.7658 -94.7283 34° Northeast 258 297 15,000  Level Houston Center
07:04PM 30.8097 -94.6583 54° Northeast 274 315 15,000  Level Houston Center
07:05PM 30.8517 -94.5856 56° Northeast 271 312 15,000  Level Houston Center
07:06PM 30.8900 -94.5125 59° Northeast 269 310 15,000  Level Houston Center
07:07PM 30.9297 -94.4394 58° Northeast 268 308 15,000  Level Houston Center
07:08PM 30.9761 -94.3514 58° Northeast 267 307 15,000  Level Houston Center
07:09PM 31.0150 -94.2786 58° Northeast 266 306 15,000  Level Houston Center
07:11PM 31.0531 -94.2067 58° Northeast 263 303 15,000  Level Houston Center
07:12PM 31.0928 -94.1322 58° Northeast 269 310 15,000 -540 Level Houston Center
07:13PM 31.1325 -94.0558 59° Northeast 274 315 13,900 -1,080 Descending Houston Center
07:14PM 31.1747 -93.9772 58° Northeast 283 326 12,800 -1,200 Descending Houston Center
07:15PM 31.2167 -93.8972 58° Northeast 274 315 11,500 -900 Descending Houston Center
07:16PM 31.2606 -93.8144 58° Northeast 269 310 11,000 -300 Descending Houston Center
07:17PM 31.2950 -93.7475 59° Northeast 249 287 11,000  Level Houston Center
07:18PM 31.3311 -93.6814 57° Northeast 242 278 11,000  Level Houston Center
07:19PM 31.3653 -93.6150 59° Northeast 240 276 11,000 -360 Level Houston Center
07:20PM 31.4017 -93.5428 59° Northeast 241 277 10,300 -1,020 Descending Houston Center
07:21PM 31.4394 -93.4714 58° Northeast 265 305 9,000 -1,380 Descending Houston Center
07:22PM 31.4769 -93.4000 58° Northeast 251 289 7,600 -1,260 Descending Houston Center
07:23PM 31.5150 -93.3272 58° Northeast 245 282 6,300 -1,260 Descending Houston Center
07:24PM 31.5483 -93.2622 59° Northeast 233 268 5,000 -1,320 Descending Houston Center
07:25PM 31.5819 -93.1983 58° Northeast 222 255 3,800 -1,200 Descending Houston Center
07:27PM 31.6637 -93.1457 55° Northeast  Level Estimated
07:34PM 31.7333 -93.0833 55° Northeast  Level FlightAware Approximate
07:35PM 31.7357 -93.0991 55° Northeast  Level Estimated